HS3UAA-1 Weather Reports


Display with metric or nautical units.
time (UTC)temp
F
wind
direction
speed
MPH
gust
MPH
rain 1hr
in
rain 24hr
in
rain mn
in
humidity
%
barometer
mb
20260504172719 91 0 0.0 0.0 0.00 0.00 0.00 49 998.0
20260504172157 91 0 0.0 0.0 0.00 0.00 0.00 49 998.0
20260504171635 91 0 0.0 0.0 0.00 0.00 0.00 48 998.0
20260504171113 91 0 0.0 0.0 0.00 0.00 0.00 49 999.0
20260504170551 91 0 0.0 0.0 0.00 0.00 0.00 48 999.0
20260504160127 92 0 0.0 0.0 0.00 0.00 0.00 47 999.0
20260504150747 91 0 0.0 0.0 0.00 0.00 0.00 48 999.0
20260504150225 90 0 0.0 0.0 0.00 0.00 0.00 49 999.0
20260504140844 90 0 0.0 0.0 0.00 0.00 0.00 48 997.0
20260504140322 90 0 0.0 0.0 0.00 0.00 0.00 48 997.0
20260504130318 90 0 0.0 0.0 0.00 0.00 0.00 47 997.0
20260504110512 93 0 0.0 0.0 0.00 0.00 0.00 40 994.0
20260504100610 82 0 0.0 0.0 0.00 0.00 0.00 52 995.0
20260504081928 82 0 0.0 0.0 0.00 0.00 0.00 50 995.0
20260504081405 82 0 0.0 0.0 0.00 0.00 0.00 50 996.0
20260504080843 83 0 0.0 0.0 0.00 0.00 0.00 50 996.0
20260504080321 83 0 0.0 0.0 0.00 0.00 0.00 50 996.0
20260504060123 84 0 0.0 0.0 0.00 0.00 0.00 39 996.0
20260504050743 84 0 0.0 0.0 0.00 0.00 0.00 40 997.0
20260504050221 84 0 0.0 0.0 0.00 0.00 0.00 40 997.0
20260504045659 84 0 0.0 0.0 0.00 0.00 0.00 40 997.0
20260504045137 85 0 0.0 0.0 0.00 0.00 0.00 40 997.0
20260504044615 85 0 0.0 0.0 0.00 0.00 0.00 40 997.0
20260504044053 85 0 0.0 0.0 0.00 0.00 0.00 40 997.0
20260504043531 84 0 0.0 0.0 0.00 0.00 0.00 40 997.0
20260504043009 84 0 0.0 0.0 0.00 0.00 0.00 41 997.0
20260504042447 84 0 0.0 0.0 0.00 0.00 0.00 40 997.0
20260504041925 84 0 0.0 0.0 0.00 0.00 0.00 41 997.0
20260504041403 83 0 0.0 0.0 0.00 0.00 0.00 41 997.0
20260504040841 83 0 0.0 0.0 0.00 0.00 0.00 41 998.0
20260504040319 83 0 0.0 0.0 0.00 0.00 0.00 40 998.0
20260504035757 84 0 0.0 0.0 0.00 0.00 0.00 41 998.0
20260504035234 84 0 0.0 0.0 0.00 0.00 0.00 41 998.0
20260504034712 84 0 0.0 0.0 0.00 0.00 0.00 42 998.0
20260504034150 84 0 0.0 0.0 0.00 0.00 0.00 46 998.0
20260504033628 84 0 0.0 0.0 0.00 0.00 0.00 40 998.0
20260504033106 83 0 0.0 0.0 0.00 0.00 0.00 41 998.0
20260504032544 84 0 0.0 0.0 0.00 0.00 0.00 41 998.0
20260504031805 83 0 0.0 0.0 0.00 0.00 0.00 46 998.0
20260504031243 83 0 0.0 0.0 0.00 0.00 0.00 41 998.0
20260504030721 83 0 0.0 0.0 0.00 0.00 0.00 41 998.0
20260504030159 84 0 0.0 0.0 0.00 0.00 0.00 42 998.0
20260504025637 84 0 0.0 0.0 0.00 0.00 0.00 44 998.0
20260504025115 83 0 0.0 0.0 0.00 0.00 0.00 42 998.0
20260504024553 84 0 0.0 0.0 0.00 0.00 0.00 41 998.0
20260504024003 84 0 0.0 0.0 0.00 0.00 0.00 43 998.0
20260504023441 83 0 0.0 0.0 0.00 0.00 0.00 42 998.0
20260504022919 84 0 0.0 0.0 0.00 0.00 0.00 42 998.0
20260504022357 83 0 0.0 0.0 0.00 0.00 0.00 41 998.0
20260504021835 84 0 0.0 0.0 0.00 0.00 0.00 44 998.0
20260504021248 84 0 0.0 0.0 0.00 0.00 0.00 42 998.0
20260504020726 83 0 0.0 0.0 0.00 0.00 0.00 41 998.0
20260504020204 83 0 0.0 0.0 0.00 0.00 0.00 45 998.0
20260504015641 83 0 0.0 0.0 0.00 0.00 0.00 45 998.0
20260504015119 83 0 0.0 0.0 0.00 0.00 0.00 43 998.0
20260504014557 83 0 0.0 0.0 0.00 0.00 0.00 43 998.0
20260504014035 83 0 0.0 0.0 0.00 0.00 0.00 44 998.0
20260504013513 83 0 0.0 0.0 0.00 0.00 0.00 47 998.0
20260504012951 83 0 0.0 0.0 0.00 0.00 0.00 49 998.0
20260504012429 83 0 0.0 0.0 0.00 0.00 0.00 51 998.0
20260504011907 83 0 0.0 0.0 0.00 0.00 0.00 48 998.0
20260504011345 84 0 0.0 0.0 0.00 0.00 0.00 48 998.0
20260504010823 84 0 0.0 0.0 0.00 0.00 0.00 48 998.0
20260504010301 83 0 0.0 0.0 0.00 0.00 0.00 47 998.0
20260504005336 83 0 0.0 0.0 0.00 0.00 0.00 52 998.0
20260504004814 83 0 0.0 0.0 0.00 0.00 0.00 51 998.0
20260504004252 83 0 0.0 0.0 0.00 0.00 0.00 51 998.0
20260504003732 83 0 0.0 0.0 0.00 0.00 0.00 51 998.0
20260504003208 83 0 0.0 0.0 0.00 0.00 0.00 50 998.0
20260504002646 84 0 0.0 0.0 0.00 0.00 0.00 49 998.0
20260504002124 84 0 0.0 0.0 0.00 0.00 0.00 46 998.0
20260504001602 86 0 0.0 0.0 0.00 0.00 0.00 44 997.0
20260504001040 88 0 0.0 0.0 0.00 0.00 0.00 47 997.0
20260504000518 91 0 0.0 0.0 0.00 0.00 0.00 50 997.0
20260503235956 91 0 0.0 0.0 0.00 0.00 0.00 51 997.0
20260503235434 92 0 0.0 0.0 0.00 0.00 0.00 50 997.0
20260503234912 92 0 0.0 0.0 0.00 0.00 0.00 50 997.0
20260503234350 91 0 0.0 0.0 0.00 0.00 0.00 51 997.0
20260503233828 91 0 0.0 0.0 0.00 0.00 0.00 50 997.0
20260503233305 93 0 0.0 0.0 0.00 0.00 0.00 48 996.0
20260503232744 93 0 0.0 0.0 0.00 0.00 0.00 48 996.0
20260503232221 92 0 0.0 0.0 0.00 0.00 0.00 49 996.0
20260503231659 94 0 0.0 0.0 0.00 0.00 0.00 47 996.0
20260503231137 94 0 0.0 0.0 0.00 0.00 0.00 46 996.0
20260503230615 93 0 0.0 0.0 0.00 0.00 0.00 47 996.0
20260503230053 93 0 0.0 0.0 0.00 0.00 0.00 47 996.0
20260503225531 94 0 0.0 0.0 0.00 0.00 0.00 46 996.0
20260503225009 95 0 0.0 0.0 0.00 0.00 0.00 45 996.0
20260503224447 94 0 0.0 0.0 0.00 0.00 0.00 46 996.0
20260503223925 94 0 0.0 0.0 0.00 0.00 0.00 46 996.0
20260503223403 94 0 0.0 0.0 0.00 0.00 0.00 46 996.0
20260503222841 93 0 0.0 0.0 0.00 0.00 0.00 47 996.0
20260503222320 93 0 0.0 0.0 0.00 0.00 0.00 47 996.0
20260503221757 94 0 0.0 0.0 0.00 0.00 0.00 46 996.0
20260503221235 95 0 0.0 0.0 0.00 0.00 0.00 45 996.0
20260503220713 95 0 0.0 0.0 0.00 0.00 0.00 45 996.0
20260503220151 94 0 0.0 0.0 0.00 0.00 0.00 46 996.0
20260503215629 94 0 0.0 0.0 0.00 0.00 0.00 46 996.0
20260503215107 94 0 0.0 0.0 0.00 0.00 0.00 46 996.0
20260503214545 93 0 0.0 0.0 0.00 0.00 0.00 47 996.0
20260503214023 94 0 0.0 0.0 0.00 0.00 0.00 45 996.0
20260503213501 95 0 0.0 0.0 0.00 0.00 0.00 45 996.0
20260503212939 94 0 0.0 0.0 0.00 0.00 0.00 46 996.0
20260503212416 94 0 0.0 0.0 0.00 0.00 0.00 46 996.0
20260503211854 94 0 0.0 0.0 0.00 0.00 0.00 46 996.0
20260503211332 94 0 0.0 0.0 0.00 0.00 0.00 45 996.0
20260503210810 94 0 0.0 0.0 0.00 0.00 0.00 45 996.0
20260503210248 94 0 0.0 0.0 0.00 0.00 0.00 46 996.0
20260503205726 94 0 0.0 0.0 0.00 0.00 0.00 45 996.0
20260503205204 94 0 0.0 0.0 0.00 0.00 0.00 45 996.0
20260503204642 94 0 0.0 0.0 0.00 0.00 0.00 45 996.0
20260503204120 94 0 0.0 0.0 0.00 0.00 0.00 45 996.0
20260503203558 94 0 0.0 0.0 0.00 0.00 0.00 46 996.0
20260503203036 95 0 0.0 0.0 0.00 0.00 0.00 44 995.0
20260503202514 94 0 0.0 0.0 0.00 0.00 0.00 46 995.0
20260503201758 95 0 0.0 0.0 0.00 0.00 0.00 44 996.0
20260503201236 93 0 0.0 0.0 0.00 0.00 0.00 46 996.0
20260503200448 94 0 0.0 0.0 0.00 0.00 0.00 45 996.0
20260503195926 95 0 0.0 0.0 0.00 0.00 0.00 44 996.0
20260503195404 95 0 0.0 0.0 0.00 0.00 0.00 44 996.0
20260503194842 95 0 0.0 0.0 0.00 0.00 0.00 44 996.0
20260503194320 95 0 0.0 0.0 0.00 0.00 0.00 44 996.0
20260503193758 95 0 0.0 0.0 0.00 0.00 0.00 44 996.0
20260503193236 95 0 0.0 0.0 0.00 0.00 0.00 44 996.0
20260503192715 94 0 0.0 0.0 0.00 0.00 0.00 45 996.0
20260503192152 95 0 0.0 0.0 0.00 0.00 0.00 44 996.0
20260503191630 95 0 0.0 0.0 0.00 0.00 0.00 44 996.0
20260503191108 94 0 0.0 0.0 0.00 0.00 0.00 45 996.0
20260503190546 95 0 0.0 0.0 0.00 0.00 0.00 44 996.0
20260503190024 94 0 0.0 0.0 0.00 0.00 0.00 44 996.0
20260503185502 95 0 0.0 0.0 0.00 0.00 0.00 44 996.0
20260503184940 95 0 0.0 0.0 0.00 0.00 0.00 44 997.0
20260503184418 94 0 0.0 0.0 0.00 0.00 0.00 44 997.0
20260503183856 95 0 0.0 0.0 0.00 0.00 0.00 44 997.0
20260503183334 95 0 0.0 0.0 0.00 0.00 0.00 44 997.0
20260503182812 96 0 0.0 0.0 0.00 0.00 0.00 43 997.0
20260503181919 95 0 0.0 0.0 0.00 0.00 0.00 43 997.0
20260503181357 96 0 0.0 0.0 0.00 0.00 0.00 42 997.0
20260503180835 96 0 0.0 0.0 0.00 0.00 0.00 42 997.0
20260503180313 95 0 0.0 0.0 0.00 0.00 0.00 43 997.0
20260503175751 95 0 0.0 0.0 0.00 0.00 0.00 44 997.0
20260503175229 96 0 0.0 0.0 0.00 0.00 0.00 42 997.0
20260503174707 96 0 0.0 0.0 0.00 0.00 0.00 42 997.0
20260503174145 96 0 0.0 0.0 0.00 0.00 0.00 42 997.0
20260503173623 96 0 0.0 0.0 0.00 0.00 0.00 42 997.0
20260503173101 96 0 0.0 0.0 0.00 0.00 0.00 42 997.0